Station: Hindmarsh Island

  Atmospheric Gas Attenuation - ITU Rec 676-11   --------------- db/100km ---------------
Date Time Temp RH % AH g/m3 Dew Point Wind Direction Speed kph Gust kph Barometer mB Rainfall Since 9am 24GHz 47GHz 76GHz 122GHz 134GHz 241GHz
24 18:40 24 58 12.62 15.2 24 28 1001.2 0 27.6 28.8 49.5 130.7 134.7 466.8
24 18:30 24.1 58 12.69 15.3 28 35 1001.2 0 27.7 28.9 49.8 131.3 135.4 469.4
24 18:20 24.4 57 12.68 15.3 30 33 1001 0 27.7 28.7 49.5 130.7 134.8 467.1
24 18:10 24.7 56 12.67 15.3 28 35 1001 0 27.6 28.6 49.3 130.1 134.1 464.8
24 18:00 25 53 12.2 14.8 32 41 1001.1 0 26.6 27.8 47.3 124.7 127.6 442.2
24 17:50 25.5 52 12.31 14.9 32 39 1001 0 26.8 27.8 47.4 125.0 128.2 444.2
24 17:40 25.6 53 12.62 15.3 39 44 1000.9 0 27.5 28.2 48.5 128.1 131.9 457.3
24 17:30 27 49 12.61 15.4 37 52 1000.8 0 27.4 27.8 47.6 125.7 129.5 448.8
24 17:20 29.5 34 10.04 12 35 44 1000.8 0 21.9 23.3 37.1 97.7 95.6 330.7
24 17:10 39.8 10 5.06 2.5 19 22 1000.6 0 11.3 15.4 19.3 50.1 39.6 134.9
24 17:00 40.2 10 5.16 2.8 30 41 1000.5 0 11.5 15.4 19.4 50.5 40.3 137.2
24 16:50 41.4 9 4.93 2.2 30 39 1000.5 0 11.0 15.0 18.6 48.3 37.9 128.8
24 16:40 40.9 9 4.81 1.8 32 37 1000.5 0 10.8 14.9 18.4 47.8 37.1 126.1
24 16:30 41.4 8 4.38 0.5 30 41 1000.5 0 9.9 14.4 17.3 44.8 33.5 113.3
24 16:20 42.3 8 4.58 1.2 26 33 1000.6 0 10.3 14.5 17.6 45.6 34.7 117.7
24 16:10 42.3 8 4.58 1.2 33 43 1000.7 0 10.3 14.5 17.6 45.6 34.7 117.8
24 16:00 42.1 8 4.54 1.1 33 46 1000.7 0 10.2 14.5 17.5 45.4 34.5 116.9
24 15:50 41.5 9 4.95 2.3 35 41 1000.8 0 11.0 15.0 18.6 48.4 38.0 129.2
24 15:40 42.3 9 5.15 2.8 32 39 1000.9 0 11.4 15.1 18.9 49.3 39.2 133.7
24 15:30 40.9 9 4.81 1.8 35 50 1001 0 10.8 15.0 18.4 47.8 37.1 126.2
24 15:20 41.6 9 4.98 2.3 35 48 1001.1 0 11.1 15.0 18.7 48.6 38.2 130.0
24 15:10 41.8 8 4.47 0.8 33 44 1001.2 0 10.0 14.5 17.4 45.2 34.1 115.4
24 15:00 41.6 8 4.43 0.7 35 56 1001.2 0 10.0 14.5 17.4 45.0 33.8 114.6
24 14:50 42.6 8 4.65 1.4 26 32 1001.4 0 10.4 14.6 17.7 45.9 35.2 119.4
24 14:40 41.6 8 4.43 0.7 39 44 1001.5 0 10.0 14.5 17.4 45.0 33.8 114.6
24 14:30 41.7 8 4.45 0.8 35 50 1001.7 0 10.0 14.5 17.4 45.1 34.0 115.0
24 14:20 41.6 8 4.43 0.7 37 46 1001.9 0 10.0 14.5 17.4 45.1 33.9 114.6
24 14:10 40.9 8 4.27 0.2 39 46 1001.9 0 9.7 14.4 17.1 44.4 32.9 111.1
24 14:00 42 8 4.51 1 37 50 1002.1 0 10.1 14.5 17.5 45.4 34.3 116.4
24 13:50 42.1 8 4.54 1.1 33 41 1002.2 0 10.2 14.5 17.6 45.5 34.5 117.1
24 13:40 41.4 8 4.38 0.5 44 52 1002.2 0 9.9 14.5 17.3 44.9 33.5 113.5
24 13:30 41.9 8 4.49 0.9 37 52 1002.4 0 10.1 14.5 17.5 45.3 34.2 116.0
24 13:20 42.5 8 4.63 1.3 30 37 1002.6 0 10.3 14.6 17.7 45.9 35.1 119.1
24 13:10 42.7 7 4.09 -0.4 28 33 1002.7 0 9.3 14.0 16.4 42.4 30.8 104.0
24 13:00 42.6 8 4.65 1.4 32 43 1002.8 0 10.4 14.6 17.7 46.0 35.2 119.5
24 12:50 41.9 8 4.49 0.9 35 41 1002.9 0 10.1 14.5 17.5 45.3 34.2 116.0
24 12:40 42.7 8 4.67 1.5 22 32 1003.1 0 10.4 14.6 17.8 46.1 35.3 120.0
24 12:30 41.3 9 4.91 2.1 19 28 1003.2 0 10.9 15.0 18.6 48.4 37.8 128.7
24 12:20 42.7 9 5.26 3.1 17 20 1003.4 0 11.6 15.2 19.2 49.9 40.0 136.6
24 12:10 41.9 9 5.05 2.6 22 26 1003.5 0 11.2 15.1 18.9 49.0 38.7 131.8
24 12:00 41.5 9 4.95 2.3 20 32 1003.8 0 11.0 15.1 18.7 48.6 38.1 129.6
24 11:50 40.4 9 4.69 1.4 24 28 1003.9 0 10.5 15.0 18.3 47.5 36.5 123.8
24 11:40 40.7 9 4.76 1.7 22 28 1004 0 10.7 15.0 18.4 47.8 36.9 125.4
24 11:30 39.6 11 5.51 3.7 19 28 1004.1 0 12.2 15.9 20.5 53.4 43.6 148.9
24 11:20 38.5 11 5.21 2.8 20 24 1004.2 0 11.6 15.8 20.0 52.0 41.6 141.8
24 11:10 36.9 13 5.67 4 19 20 1004.3 0 12.6 16.6 21.6 56.2 46.4 158.4
24 11:00 36.4 13 5.53 3.6 22 30 1004.3 0 12.3 16.5 21.3 55.6 45.4 155.0
24 10:50 36.2 14 5.89 4.5 22 28 1004.4 0 13.1 16.9 22.4 58.3 48.7 166.6
24 10:40 35 15 5.93 4.5 22 26 1004.6 0 13.2 17.2 22.8 59.4 49.8 170.2
24 10:30 34.4 15 5.75 4 24 32 1004.7 0 12.8 17.1 22.4 58.5 48.5 165.7
24 10:20 33.6 15 5.51 3.4 26 30 1004.8 0 12.4 17.0 22.0 57.3 46.8 159.5
24 10:10 33.3 16 5.79 4.1 22 26 1004.8 0 13.0 17.3 22.8 59.5 49.5 169.1
24 10:00 32.9 17 6.02 4.6 24 32 1005 0 13.4 17.7 23.6 61.5 51.9 177.4
24 09:50 32.5 19 6.59 5.9 24 28 1005 0 14.6 18.4 25.3 66.2 57.5 197.2
24 09:40 32.3 18 6.18 5 24 28 1005.1 0 13.8 18.0 24.2 63.2 53.7 184.0
24 09:30 31.9 19 6.38 5.4 22 32 1005.2 0 14.2 18.3 24.9 65.0 55.9 191.5
24 09:20 31.4 20 6.54 5.8 20 26 1005.3 0 14.6 18.6 25.5 66.7 57.8 198.1
24 09:10 30.9 20 6.37 5.3 22 26 1005.4 0 14.2 18.5 25.2 65.7 56.5 193.5
24 09:00 30.5 20 6.23 5 26 32 1005.5 0 14.0 18.4 24.9 65.0 55.4 189.6
24 08:50 30.1 21 6.4 5.4 28 32 1005.5 0 14.3 18.7 25.5 66.6 57.3 196.3
24 08:40 29.6 24 7.12 6.9 22 24 1005.6 0 15.8 19.6 27.8 72.8 64.9 222.7
24 08:30 29.1 25 7.22 7.1 20 26 1005.6 0 16.0 19.9 28.3 74.1 66.3 227.7
24 08:20 28.9 25 7.14 6.9 24 28 1005.7 0 15.9 19.8 28.1 73.6 65.6 225.3
24 08:10 28.7 25 7.07 6.7 20 26 1005.6 0 15.7 19.8 28.0 73.2 65.1 223.4
24 08:00 28.3 27 7.47 7.5 22 30 1005.6 0 16.6 20.4 29.4 76.9 69.5 238.9
24 07:50 27.9 29 7.84 8.2 22 28 1005.6 0 17.4 20.9 30.7 80.4 73.7 253.7
24 07:40 27 31 7.98 8.4 20 26 1005.5 0 17.7 21.3 31.5 82.5 76.0 261.8
24 07:30 26.5 30 7.51 7.5 20 28 1005.5 0 16.7 20.8 30.1 78.9 71.5 245.6
24 07:20 26.1 31 7.59 7.7 22 24 1005.4 0 16.9 21.0 30.5 80.0 72.7 249.8
24 07:10 25.9 31 7.51 7.5 22 24 1005.3 0 16.8 20.9 30.3 79.5 72.0 247.4
24 07:00 25.8 31 7.46 7.4 24 35 1005.2 0 16.7 20.9 30.2 79.1 71.5 245.8
24 06:50 25.4 33 7.77 8 28 33 1005.2 0 17.3 21.4 31.4 82.2 75.2 258.7
24 06:40 25.3 33 7.73 7.9 24 30 1005.3 0 17.2 21.4 31.3 82.0 74.9 257.5
24 06:30 25.4 33 7.77 8 24 30 1005.3 0 17.3 21.4 31.4 82.2 75.2 258.8
24 06:20 25.4 32 7.53 7.5 26 28 1005.2 0 16.8 21.1 30.6 80.1 72.6 249.6
24 06:10 25.6 32 7.62 7.7 28 33 1005.3 0 17.0 21.1 30.8 80.7 73.4 252.4
24 06:00 25.1 35 8.1 8.6 22 30 1005.2 0 18.0 21.9 32.6 85.5 79.1 272.4
24 05:50 24.7 37 8.37 9 22 26 1005.3 0 18.6 22.4 33.7 88.3 82.6 284.4
24 05:40 24.5 39 8.73 9.6 19 20 1005.2 0 19.4 22.9 35.0 91.9 86.8 299.4
24 05:30 24.7 39 8.83 9.8 20 26 1005.2 0 19.6 23.0 35.3 92.6 87.8 302.6
24 05:20 25.1 38 8.8 9.8 20 24 1005.3 0 19.5 22.9 35.0 91.8 87.0 300.0
24 04:50 24.3 37 8.19 8.7 19 24 1005.3 0 18.3 22.2 33.2 87.1 80.9 278.7
24 04:40 23.7 38 8.13 8.5 20 22 1005.3 0 18.2 22.3 33.3 87.2 80.9 278.3
24 04:30 23.5 39 8.25 8.8 19 24 1005.4 0 18.4 22.5 33.8 88.6 82.4 283.8
24 04:20 23.8 39 8.39 9 20 22 1005.3 0 18.7 22.6 34.1 89.5 83.7 288.3
24 04:10 23.7 40 8.56 9.3 20 20 1005.3 0 19.1 22.9 34.7 91.2 85.8 295.5
24 04:00 23.3 42 8.78 9.7 22 26 1005.5 0 19.5 23.3 35.7 93.7 88.7 305.9
24 03:50 22.9 41 8.38 9 22 26 1005.5 0 18.7 22.8 34.5 90.4 84.6 291.2
24 03:40 22.7 42 8.49 9.1 19 20 1005.6 0 18.9 23.0 34.9 91.7 86.0 296.4
24 03:30 22.4 44 8.74 9.6 19 22 1005.7 0 19.5 23.5 36.0 94.4 89.3 307.8
24 03:20 22.3 46 9.08 10.1 19 20 1005.8 0 20.2 24.0 37.2 97.8 93.4 322.3
24 03:10 22.3 46 9.08 10.1 19 20 1005.8 0 20.2 24.0 37.2 97.8 93.4 322.3
24 03:00 22.2 46 9.03 10 19 20 1006 0 20.1 24.0 37.1 97.5 93.0 320.6
24 02:50 22.1 49 9.56 10.9 17 19 1006.1 0 21.2 24.8 39.1 102.8 99.5 343.4
24 02:40 22.4 50 9.93 11.5 19 19 1006.2 0 22.0 25.3 40.3 106.0 103.6 357.9
24 02:30 21.3 54 10.06 11.6 13 15 1006.5 0 22.3 25.8 41.4 108.9 106.7 368.6
24 02:20 21 58 10.62 12.4 11 13 1006.6 0 23.5 26.7 43.7 115.0 114.2 394.8
24 02:10 21.6 56 10.62 12.5 11 11 1006.7 0 23.5 26.6 43.4 114.2 113.4 391.9
24 02:00 21.4 58 10.87 12.8 9 11 1006.8 0 24.0 27.0 44.5 117.1 116.8 404.1
24 01:50 21.7 56 10.68 12.5 7 9 1006.9 0 23.6 26.6 43.6 114.7 114.0 394.1

Last Refresh: 24-Jan-2021 18:45:46

Most of the information presented on this site is sourced from the Bureau of Meteorology.  Copyright in all material sourced from the Bureau of Meteorology resides with the Commonwealth of Australia.